createdAt,value
2019-06-07T00:01:41.588Z,100974.81
2019-06-07T00:04:10.327Z,100974.17
2019-06-07T00:06:37.645Z,100969.16
2019-06-07T00:09:08.085Z,100964.22
2019-06-07T00:11:34.599Z,100961.67
2019-06-07T00:14:01.719Z,100957.01
2019-06-07T00:16:28.489Z,100950.72
2019-06-07T00:18:55.188Z,100952.86
2019-06-07T00:22:11.700Z,100958.70
2019-06-07T00:23:50.612Z,100950.34
2019-06-07T00:26:20.988Z,100951.63
2019-06-07T00:28:45.962Z,100955.98
2019-06-07T00:31:14.919Z,100954.47
2019-06-07T00:33:41.868Z,100946.57
2019-06-07T00:36:10.090Z,100941.46
2019-06-07T00:38:37.669Z,100948.22
2019-06-07T00:41:04.597Z,100950.70
2019-06-07T00:43:31.588Z,100959.88
2019-06-07T00:45:58.290Z,100944.78
2019-06-07T00:48:32.037Z,100898.59
2019-06-07T00:50:53.656Z,100948.07
2019-06-07T00:53:31.079Z,100949.02
2019-06-07T00:55:49.357Z,100945.63
2019-06-07T00:58:17.950Z,100891.48
2019-06-07T01:00:45.201Z,100935.42
2019-06-07T01:03:12.834Z,100945.66
2019-06-07T01:05:39.511Z,100947.20
2019-06-07T01:08:06.464Z,100939.13
2019-06-07T01:10:52.218Z,100935.72
2019-06-07T01:13:02.129Z,100942.19
2019-06-07T01:15:29.489Z,100952.22
2019-06-07T01:20:26.813Z,100955.63
2019-06-07T01:22:53.653Z,100950.70
2019-06-07T01:25:23.867Z,100948.85
2019-06-07T01:27:49.933Z,100948.11
2019-06-07T01:30:18.761Z,100952.30
2019-06-07T01:32:49.429Z,100951.36
2019-06-07T01:35:16.522Z,100955.20
2019-06-07T01:37:43.516Z,100952.20
2019-06-07T01:40:10.374Z,100961.50
2019-06-07T01:42:37.078Z,100966.06
2019-06-07T01:45:04.182Z,100960.44
2019-06-07T01:47:32.073Z,100952.37
2019-06-07T01:49:59.149Z,100945.86
2019-06-07T01:52:26.720Z,100947.56
2019-06-07T01:54:58.621Z,100953.01
2019-06-07T01:57:38.323Z,100951.60
2019-06-07T01:59:50.763Z,100947.88
2019-06-07T02:02:17.843Z,100945.49
2019-06-07T02:04:44.613Z,100943.39
2019-06-07T02:07:11.390Z,100941.53
2019-06-07T02:09:38.084Z,100941.34
2019-06-07T02:12:24.796Z,100933.03
2019-06-07T02:14:34.016Z,100934.34
2019-06-07T02:17:00.939Z,100940.97
2019-06-07T02:19:32.727Z,100936.52
2019-06-07T02:21:56.188Z,100931.28
2019-06-07T02:24:25.285Z,100926.25
2019-06-07T02:26:51.727Z,100919.36
2019-06-07T02:29:18.506Z,100924.83
2019-06-07T02:32:10.109Z,100919.91
2019-06-07T02:34:42.190Z,100907.59
2019-06-07T02:37:32.305Z,100909.84
2019-06-07T02:40:06.170Z,100909.84
2019-06-07T02:42:41.727Z,100904.44
2019-06-07T02:45:04.451Z,100900.00
2019-06-07T02:47:35.981Z,100905.30
2019-06-07T02:49:59.710Z,100912.27
2019-06-07T02:52:30.785Z,100910.82
2019-06-07T02:54:55.075Z,100910.59
2019-06-07T02:57:21.866Z,100915.34
2019-06-07T03:00:06.849Z,100915.73
2019-06-07T03:02:17.468Z,100915.20
2019-06-07T03:04:44.936Z,100915.79
2019-06-07T03:07:11.995Z,100922.08
2019-06-07T03:09:39.964Z,100920.06
2019-06-07T03:12:08.695Z,100925.39
2019-06-07T03:14:35.753Z,100927.32
2019-06-07T03:17:35.282Z,100924.61
2019-06-07T03:20:01.687Z,100920.15
2019-06-07T03:22:32.044Z,100919.39
2019-06-07T03:25:00.791Z,100912.92
2019-06-07T03:27:36.168Z,100910.36
2019-06-07T03:29:56.333Z,100910.89
2019-06-07T03:32:23.075Z,100912.02
2019-06-07T03:34:49.713Z,100918.32
2019-06-07T03:37:16.449Z,100910.05
2019-06-07T03:39:43.281Z,100909.17
2019-06-07T03:42:10.061Z,100913.48
2019-06-07T03:44:40.674Z,100905.92
2019-06-07T03:47:05.358Z,100907.25
2019-06-07T03:49:37.535Z,100906.73
2019-06-07T03:52:00.663Z,100901.08
2019-06-07T03:54:27.432Z,100908.84
2019-06-07T03:56:55.214Z,100915.30
2019-06-07T03:59:21.992Z,100915.90
2019-06-07T04:01:48.796Z,100916.95
2019-06-07T04:04:15.587Z,100917.91
2019-06-07T04:06:42.847Z,100919.95
2019-06-07T04:09:09.823Z,100923.07
2019-06-07T04:11:39.386Z,100921.34
2019-06-07T04:14:05.248Z,100921.88
2019-06-07T04:16:34.964Z,100923.59
2019-06-07T04:19:00.504Z,100918.25
2019-06-07T04:21:29.692Z,100920.50
2019-06-07T04:23:55.774Z,100912.77
2019-06-07T04:26:22.443Z,100913.19
2019-06-07T04:29:32.184Z,100906.80
2019-06-07T04:31:17.940Z,100911.24
2019-06-07T04:33:44.746Z,100915.77
2019-06-07T04:36:11.546Z,100913.57
2019-06-07T04:38:40.551Z,100915.08
2019-06-07T04:41:07.937Z,100918.34
2019-06-07T04:43:35.633Z,100928.21
2019-06-07T04:46:03.244Z,100930.77
2019-06-07T04:48:31.282Z,100933.52
2019-06-07T04:51:00.976Z,100932.72
2019-06-07T04:53:30.078Z,100934.21
2019-06-07T04:55:56.357Z,100934.11
2019-06-07T04:58:23.786Z,100935.74
2019-06-07T05:00:56.317Z,100937.16
2019-06-07T05:03:19.035Z,100943.64
2019-06-07T05:05:45.726Z,100948.22
2019-06-07T05:08:27.605Z,100952.70
2019-06-07T05:10:43.542Z,100952.88
2019-06-07T05:13:09.657Z,100958.80
2019-06-07T05:15:38.992Z,100958.80
2019-06-07T05:18:05.129Z,100949.02
2019-06-07T05:20:33.623Z,100951.22
2019-06-07T05:23:00.691Z,100951.59
2019-06-07T05:25:27.478Z,100947.44
2019-06-07T05:27:54.318Z,100943.81
2019-06-07T05:33:01.757Z,100942.55
2019-06-07T05:35:30.566Z,100950.74
2019-06-07T05:37:57.431Z,100951.45
2019-06-07T05:40:32.958Z,100944.27
2019-06-07T05:43:00.313Z,100954.30
2019-06-07T05:45:35.022Z,100954.08
2019-06-07T05:48:02.686Z,100950.13
2019-06-07T05:50:43.975Z,100955.96
2019-06-07T05:52:58.434Z,100961.73
2019-06-07T05:55:25.419Z,100966.63
2019-06-07T05:57:52.121Z,100972.86
2019-06-07T06:00:19.202Z,100985.28
2019-06-07T06:03:04.169Z,100984.99
2019-06-07T06:05:32.601Z,100992.86
2019-06-07T06:07:49.905Z,100995.83
2019-06-07T06:10:11.755Z,100998.41
2019-06-07T06:12:44.720Z,100991.70
2019-06-07T06:15:10.685Z,100985.87
2019-06-07T06:17:40.942Z,100981.79
2019-06-07T06:20:07.329Z,100982.03
2019-06-07T06:22:34.074Z,100975.08
2019-06-07T06:25:30.598Z,100978.28
2019-06-07T06:28:03.414Z,100977.44
2019-06-07T06:29:58.902Z,100976.64
2019-06-07T06:32:46.689Z,100979.65
2019-06-07T06:34:55.900Z,100976.00
2019-06-07T06:37:22.801Z,100976.13
2019-06-07T06:39:50.076Z,100977.64
2019-06-07T06:42:17.160Z,100976.66
2019-06-07T06:44:46.427Z,100975.10
2019-06-07T06:47:12.796Z,100976.59
2019-06-07T06:49:40.396Z,100978.60
2019-06-07T06:52:08.494Z,100973.59
2019-06-07T06:54:40.970Z,100974.14
2019-06-07T06:57:19.222Z,100984.61
2019-06-07T06:59:39.097Z,100986.92
2019-06-07T07:02:01.671Z,100984.28
2019-06-07T07:04:28.710Z,100977.14
2019-06-07T07:06:55.632Z,100979.45
2019-06-07T07:09:23.007Z,100982.86
2019-06-07T07:12:01.044Z,100982.27
2019-06-07T07:14:18.470Z,100979.55
2019-06-07T07:16:49.667Z,100974.66
2019-06-07T07:19:14.826Z,100971.90
2019-06-07T07:21:42.068Z,100971.66
2019-06-07T07:24:21.118Z,100973.21
2019-06-07T07:26:37.567Z,100968.64
2019-06-07T07:29:04.408Z,100962.09
2019-06-07T07:31:31.089Z,100962.39
2019-06-07T07:34:32.436Z,100968.95
2019-06-07T07:36:38.893Z,100969.09
2019-06-07T07:39:04.055Z,100968.26
2019-06-07T07:41:23.758Z,100964.31
2019-06-07T07:43:59.402Z,100965.55
2019-06-07T07:46:29.172Z,100963.16
2019-06-07T07:48:48.568Z,100974.30
2019-06-07T07:51:15.459Z,100982.17
2019-06-07T07:53:51.906Z,100980.33
2019-06-07T07:56:11.017Z,100978.09
2019-06-07T07:58:38.112Z,100970.78
2019-06-07T08:01:10.814Z,100971.17
2019-06-07T08:03:34.833Z,100968.75
2019-06-07T08:06:01.624Z,100969.04
2019-06-07T08:08:28.410Z,100970.45
2019-06-07T08:10:58.531Z,100976.39
2019-06-07T08:13:26.835Z,100975.37
2019-06-07T08:15:58.626Z,100974.43
2019-06-07T08:18:21.321Z,100976.51
2019-06-07T08:21:08.821Z,100978.77
2019-06-07T08:23:16.610Z,100968.97
2019-06-07T08:25:44.332Z,100955.58
2019-06-07T08:28:11.007Z,100953.48
2019-06-07T08:31:02.343Z,100953.02
2019-06-07T08:33:25.262Z,100953.23
2019-06-07T08:40:32.810Z,100948.00
2019-06-07T08:43:11.873Z,100933.73
2019-06-07T08:45:28.403Z,100942.73
2019-06-07T08:47:58.181Z,100934.03
2019-06-07T08:50:24.098Z,100929.00
2019-06-07T08:52:54.764Z,100928.16
2019-06-07T08:55:19.599Z,100927.54
2019-06-07T08:57:46.401Z,100929.13
2019-06-07T09:00:43.234Z,100935.32
2019-06-07T09:02:43.779Z,100931.45
2019-06-07T09:05:12.742Z,100926.31
2019-06-07T09:07:40.776Z,100923.72
2019-06-07T09:10:13.880Z,100920.73
2019-06-07T09:12:36.778Z,100920.87
2019-06-07T09:15:14.804Z,100919.59
2019-06-07T09:17:34.191Z,100923.98
2019-06-07T09:20:09.135Z,100918.39
2019-06-07T09:22:29.821Z,100914.81
2019-06-07T09:25:04.301Z,100916.69
2019-06-07T09:27:25.835Z,100910.33
2019-06-07T09:29:52.732Z,100904.47
2019-06-07T09:32:19.462Z,100899.34
2019-06-07T09:34:46.178Z,100899.75
2019-06-07T09:38:02.979Z,100901.18
2019-06-07T09:39:41.674Z,100900.77
2019-06-07T09:42:11.840Z,100892.62
2019-06-07T09:44:38.163Z,100892.80
2019-06-07T09:47:22.463Z,100893.36
2019-06-07T09:49:33.720Z,100891.89
2019-06-07T09:52:06.767Z,100887.02
2019-06-07T09:55:03.720Z,100885.58
2019-06-07T09:57:00.356Z,100891.48
2019-06-07T09:59:38.837Z,100873.25
2019-06-07T10:02:13.252Z,100875.71
2019-06-07T10:04:35.372Z,100870.95
2019-06-07T10:07:09.135Z,100871.75
2019-06-07T10:12:02.315Z,100857.42
2019-06-07T10:14:30.110Z,100855.19
2019-06-07T10:16:56.993Z,100858.73
2019-06-07T10:19:23.784Z,100852.25
2019-06-07T10:21:50.581Z,100850.94
2019-06-07T10:24:17.374Z,100850.77
2019-06-07T10:26:44.253Z,100850.79
2019-06-07T10:29:11.014Z,100852.46
2019-06-07T10:31:37.795Z,100857.47
2019-06-07T10:34:04.899Z,100855.83
2019-06-07T10:36:33.084Z,100851.19
2019-06-07T10:39:00.717Z,100850.30
2019-06-07T10:41:27.693Z,100848.48
2019-06-07T10:43:54.484Z,100850.62
2019-06-07T10:46:21.295Z,100849.32
2019-06-07T10:48:47.975Z,100848.47
2019-06-07T10:51:15.041Z,100853.41
2019-06-07T10:53:41.966Z,100854.28
2019-06-07T10:56:09.093Z,100841.71
2019-06-07T10:58:35.967Z,100846.86
2019-06-07T11:01:03.379Z,100845.39
2019-06-07T11:03:30.259Z,100839.55
2019-06-07T11:05:56.931Z,100838.18
2019-06-07T11:08:23.645Z,100836.67
2019-06-07T11:10:50.347Z,100837.08
2019-06-07T11:13:17.030Z,100836.23
2019-06-07T11:15:43.737Z,100833.81
2019-06-07T11:18:10.482Z,100822.97
2019-06-07T11:20:37.180Z,100826.80
2019-06-07T11:23:03.986Z,100817.00
2019-06-07T11:25:30.661Z,100818.03
2019-06-07T11:27:57.344Z,100816.08
2019-06-07T11:30:24.163Z,100813.25
2019-06-07T11:32:50.881Z,100814.17
2019-06-07T11:35:19.035Z,100801.39
2019-06-07T11:37:45.822Z,100798.52
2019-06-07T11:40:35.696Z,100801.81
2019-06-07T11:42:41.614Z,100798.45
2019-06-07T11:45:10.545Z,100799.97
2019-06-07T11:47:37.607Z,100793.89
2019-06-07T11:50:04.921Z,100779.23
2019-06-07T11:52:31.592Z,100777.11
2019-06-07T11:54:58.279Z,100770.59
2019-06-07T11:57:25.074Z,100766.91
2019-06-07T11:59:51.784Z,100761.47
2019-06-07T12:02:18.708Z,100749.02
2019-06-07T12:04:45.474Z,100750.14
2019-06-07T12:07:13.756Z,100748.91
2019-06-07T12:09:55.529Z,100749.77
2019-06-07T12:12:10.347Z,100739.15
2019-06-07T12:14:37.099Z,100737.23
2019-06-07T12:17:03.858Z,100730.11
2019-06-07T12:19:30.667Z,100722.00
2019-06-07T12:21:57.462Z,100724.48
2019-06-07T12:24:24.133Z,100725.34
2019-06-07T12:26:50.982Z,100718.70
2019-06-07T12:29:19.118Z,100717.50
2019-06-07T12:31:45.956Z,100710.28
2019-06-07T12:34:13.773Z,100703.95
2019-06-07T12:36:40.573Z,100698.44
2019-06-07T12:39:07.373Z,100699.45
2019-06-07T12:41:34.070Z,100690.91
2019-06-07T12:44:00.762Z,100698.63
2019-06-07T12:46:28.711Z,100683.33
2019-06-07T12:48:55.510Z,100691.30
2019-06-07T12:51:23.500Z,100693.03
2019-06-07T12:53:50.405Z,100691.55
2019-06-07T12:56:17.743Z,100679.09
2019-06-07T12:58:44.560Z,100686.26
2019-06-07T13:01:11.366Z,100689.05
2019-06-07T13:03:38.156Z,100684.50
2019-06-07T13:06:04.970Z,100680.12
2019-06-07T13:08:31.773Z,100678.73
2019-06-07T13:11:14.345Z,100668.30
2019-06-07T13:13:28.117Z,100668.03
2019-06-07T13:15:54.983Z,100677.03
2019-06-07T13:18:23.202Z,100665.94
2019-06-07T13:20:55.007Z,100665.95
2019-06-07T13:23:20.555Z,100665.64
2019-06-07T13:25:47.588Z,100655.02
2019-06-07T13:28:14.261Z,100659.45
2019-06-07T13:30:41.047Z,100662.69
2019-06-07T13:33:07.734Z,100657.55
2019-06-07T13:35:34.439Z,100648.64
2019-06-07T13:38:01.234Z,100645.36
2019-06-07T13:40:28.672Z,100640.99
2019-06-07T13:42:55.581Z,100642.36
2019-06-07T13:45:22.842Z,100637.98
2019-06-07T13:47:50.946Z,100635.02
2019-06-07T13:50:17.822Z,100633.28
2019-06-07T13:52:46.427Z,100636.37
2019-06-07T13:55:13.730Z,100625.80
2019-06-07T13:57:40.559Z,100623.67
2019-06-07T14:00:10.870Z,100620.18
2019-06-07T14:02:36.814Z,100618.06
2019-06-07T14:05:04.710Z,100607.38
2019-06-07T14:07:31.512Z,100606.97
2019-06-07T14:09:58.208Z,100606.09
2019-06-07T14:12:26.204Z,100607.79
2019-06-07T14:14:53.062Z,100605.66
2019-06-07T14:17:21.080Z,100597.50
2019-06-07T14:19:47.973Z,100593.67
2019-06-07T14:22:14.674Z,100585.10
2019-06-07T14:24:41.353Z,100582.53
2019-06-07T14:27:08.166Z,100585.98
2019-06-07T14:29:35.727Z,100577.31
2019-06-07T14:32:03.042Z,100576.11
2019-06-07T14:34:30.654Z,100573.56
2019-06-07T14:36:57.482Z,100576.55
2019-06-07T14:39:24.941Z,100576.13
2019-06-07T14:42:07.971Z,100577.67
2019-06-07T14:44:20.563Z,100571.77
2019-06-07T14:46:47.330Z,100568.53
2019-06-07T14:49:14.177Z,100568.73
2019-06-07T14:51:40.866Z,100567.91
2019-06-07T14:54:07.655Z,100565.30
2019-06-07T14:56:35.290Z,100562.29
2019-06-07T14:59:02.335Z,100564.81
2019-06-07T15:01:30.559Z,100557.95
2019-06-07T15:03:57.878Z,100559.14
2019-06-07T15:06:24.558Z,100553.15
2019-06-07T15:08:51.689Z,100545.00
2019-06-07T15:11:18.562Z,100542.30
2019-06-07T15:13:45.353Z,100524.73
2019-06-07T15:16:12.062Z,100516.94
2019-06-07T15:18:38.737Z,100511.50
2019-06-07T15:21:05.481Z,100505.91
2019-06-07T15:23:33.492Z,100506.77
2019-06-07T15:26:00.270Z,100503.33
2019-06-07T15:28:27.650Z,100502.83
2019-06-07T15:30:54.518Z,100498.56
2019-06-07T15:33:21.191Z,100499.14
2019-06-07T15:35:47.897Z,100489.55
2019-06-07T15:38:14.582Z,100481.97
2019-06-07T15:40:41.386Z,100480.91
2019-06-07T15:43:08.185Z,100471.86
2019-06-07T15:45:35.554Z,100486.38
2019-06-07T15:48:02.559Z,100474.98
2019-06-07T15:50:30.446Z,100470.78
2019-06-07T15:52:57.400Z,100463.11
2019-06-07T15:55:24.189Z,100458.91
2019-06-07T15:57:50.992Z,100458.06
2019-06-07T16:00:18.463Z,100455.11
2019-06-07T16:02:45.289Z,100453.41
2019-06-07T16:05:12.378Z,100452.12
2019-06-07T16:07:40.465Z,100440.18
2019-06-07T16:10:09.063Z,100440.59
2019-06-07T16:12:36.778Z,100439.39
2019-06-07T16:15:04.962Z,100440.59
2019-06-07T16:17:32.893Z,100431.51
2019-06-07T16:20:00.730Z,100429.85
2019-06-07T16:22:27.422Z,100426.77
2019-06-07T16:24:54.237Z,100416.59
2019-06-07T16:27:20.902Z,100420.44
2019-06-07T16:29:47.596Z,100408.95
2019-06-07T16:32:14.269Z,100414.03
2019-06-07T16:34:41.783Z,100409.42
2019-06-07T16:37:10.175Z,100407.70
2019-06-07T16:39:38.028Z,100396.97
2019-06-07T16:42:04.961Z,100388.88
2019-06-07T16:44:31.763Z,100382.90
2019-06-07T16:46:58.425Z,100387.95
2019-06-07T16:49:25.122Z,100380.69
2019-06-07T16:51:51.865Z,100392.12
2019-06-07T16:54:18.693Z,100392.52
2019-06-07T16:56:48.095Z,100395.52
2019-06-07T16:59:14.126Z,100398.94
2019-06-07T17:01:41.074Z,100398.08
2019-06-07T17:04:07.902Z,100390.33
2019-06-07T17:06:34.604Z,100394.20
2019-06-07T17:09:01.314Z,100387.41
2019-06-07T17:11:29.997Z,100381.39
2019-06-07T17:13:56.784Z,100381.77
2019-06-07T17:16:23.571Z,100374.50
2019-06-07T17:18:50.362Z,100385.14
2019-06-07T17:21:17.051Z,100370.16
2019-06-07T17:23:43.866Z,100362.84
2019-06-07T17:26:10.548Z,100353.44
2019-06-07T17:28:37.271Z,100365.45
2019-06-07T17:31:04.211Z,100367.98
2019-06-07T17:33:31.018Z,100368.36
2019-06-07T17:35:57.705Z,100359.83
2019-06-07T17:38:24.827Z,100362.87
2019-06-07T17:40:51.507Z,100359.00
2019-06-07T17:43:18.194Z,100363.31
2019-06-07T17:45:45.469Z,100360.37
2019-06-07T17:48:12.340Z,100359.91
2019-06-07T17:50:39.133Z,100357.84
2019-06-07T17:53:05.910Z,100352.22
2019-06-07T17:55:32.677Z,100353.01
2019-06-07T17:57:59.370Z,100350.59
2019-06-07T18:00:42.615Z,100346.01
2019-06-07T18:03:09.313Z,100353.09
2019-06-07T18:05:36.090Z,100347.61
2019-06-07T18:08:02.866Z,100342.73
2019-06-07T18:10:34.515Z,100347.41
2019-06-07T18:13:01.203Z,100341.28
2019-06-07T18:15:37.023Z,100352.13
2019-06-07T18:18:03.815Z,100353.83
2019-06-07T18:20:30.621Z,100347.27
2019-06-07T18:22:57.428Z,100352.75
2019-06-07T18:25:24.318Z,100359.50
2019-06-07T18:27:51.041Z,100365.58
2019-06-07T18:30:17.794Z,100360.91
2019-06-07T18:32:44.639Z,100359.79
2019-06-07T18:35:11.417Z,100370.11
2019-06-07T18:37:38.225Z,100362.80
2019-06-07T18:40:05.835Z,100364.92
2019-06-07T18:42:32.542Z,100363.11
2019-06-07T18:44:59.476Z,100359.59
2019-06-07T18:47:26.203Z,100347.41
2019-06-07T18:49:53.561Z,100345.50
2019-06-07T18:52:25.865Z,100346.00
2019-06-07T18:54:53.066Z,100356.31
2019-06-07T18:57:19.822Z,100346.55
2019-06-07T18:59:46.622Z,100338.90
2019-06-07T19:02:13.297Z,100345.61
2019-06-07T19:04:40.117Z,100340.27
2019-06-07T19:07:06.920Z,100334.32
2019-06-07T19:09:33.606Z,100331.74
2019-06-07T19:12:00.407Z,100330.00
2019-06-07T19:14:36.548Z,100338.41
2019-06-07T19:16:55.685Z,100348.22
2019-06-07T19:19:22.454Z,100359.55
2019-06-07T19:21:49.895Z,100352.47
2019-06-07T19:24:16.642Z,100354.77
2019-06-07T19:26:43.417Z,100358.58
2019-06-07T19:29:10.291Z,100364.33
2019-06-07T19:31:37.144Z,100366.42
2019-06-07T19:34:04.029Z,100376.35
2019-06-07T19:36:30.861Z,100384.04
2019-06-07T19:38:58.016Z,100392.06
2019-06-07T19:41:24.758Z,100397.11
2019-06-07T19:43:52.127Z,100403.13
2019-06-07T19:46:18.985Z,100398.12
2019-06-07T19:48:45.677Z,100394.14
2019-06-07T19:51:12.771Z,100387.80
2019-06-07T19:53:39.562Z,100380.06
2019-06-07T19:56:06.706Z,100360.16
2019-06-07T19:58:33.902Z,100349.30
2019-06-07T20:01:02.021Z,100351.06
2019-06-07T20:03:28.995Z,100355.92
2019-06-07T20:05:56.102Z,100356.06
2019-06-07T20:08:23.143Z,100359.63
2019-06-07T20:10:49.817Z,100366.46
2019-06-07T20:13:18.996Z,100365.52
2019-06-07T20:15:45.735Z,100373.05
2019-06-07T20:18:12.413Z,100387.34
2019-06-07T20:20:39.649Z,100392.47
2019-06-07T20:23:06.438Z,100406.16
2019-06-07T20:25:33.467Z,100417.77
2019-06-07T20:28:01.404Z,100434.55
2019-06-07T20:30:28.366Z,100439.47
2019-06-07T20:32:55.146Z,100440.16
2019-06-07T20:35:21.930Z,100443.26
2019-06-07T20:37:48.635Z,100454.66
2019-06-07T20:40:24.384Z,100457.05
2019-06-07T20:42:44.138Z,100459.64
2019-06-07T20:45:11.142Z,100460.69
2019-06-07T20:47:38.548Z,100463.26
2019-06-07T20:50:06.342Z,100464.91
2019-06-07T20:52:33.428Z,100464.44
2019-06-07T20:55:00.599Z,100463.97
2019-06-07T20:57:27.932Z,100453.66
2019-06-07T20:59:54.841Z,100448.70
2019-06-07T21:02:22.048Z,100443.34
2019-06-07T21:04:48.882Z,100435.64
2019-06-07T21:07:15.678Z,100429.81
2019-06-07T21:09:42.518Z,100425.25
2019-06-07T21:12:09.926Z,100421.91
2019-06-07T21:14:36.786Z,100434.51
2019-06-07T21:17:04.200Z,100437.53
2019-06-07T21:19:30.971Z,100441.83
2019-06-07T21:21:57.741Z,100446.69
2019-06-07T21:24:24.444Z,100473.22
2019-06-07T21:26:53.377Z,100473.44
2019-06-07T21:29:20.758Z,100485.87
2019-06-07T21:31:48.208Z,100492.56
2019-06-07T21:34:14.981Z,100498.08
2019-06-07T21:36:41.673Z,100495.14
2019-06-07T21:39:10.211Z,100503.78
2019-06-07T21:41:37.481Z,100514.80
2019-06-07T21:44:06.228Z,100506.89
2019-06-07T21:46:34.041Z,100502.73
2019-06-07T21:49:02.223Z,100484.97
2019-06-07T21:51:29.014Z,100444.19
2019-06-07T21:53:55.817Z,100445.27
2019-06-07T21:56:22.595Z,100467.67
2019-06-07T21:58:49.439Z,100476.98
2019-06-07T22:01:21.639Z,100483.35
2019-06-07T22:03:48.700Z,100489.91
2019-06-07T22:06:15.761Z,100484.28
2019-06-07T22:08:42.558Z,100479.67
2019-06-07T22:11:10.241Z,100516.19
2019-06-07T22:13:37.320Z,100561.23
2019-06-07T22:16:04.390Z,100555.03
2019-06-07T22:18:31.184Z,100552.17
2019-06-07T22:20:58.647Z,100562.42
2019-06-07T22:23:25.474Z,100588.45
2019-06-07T22:25:52.544Z,100592.38
2019-06-07T22:28:19.213Z,100587.31
2019-06-07T22:30:46.074Z,100575.65
2019-06-07T22:33:13.424Z,100563.17
2019-06-07T22:35:41.503Z,100559.66
2019-06-07T22:38:08.489Z,100559.37
2019-06-07T22:40:36.281Z,100591.37
2019-06-07T22:43:03.390Z,100601.58
2019-06-07T22:45:31.627Z,100610.11
2019-06-07T22:47:58.321Z,100602.20
2019-06-07T22:50:25.210Z,100594.11
2019-06-07T22:52:52.047Z,100587.05
2019-06-07T22:55:18.694Z,100570.89
2019-06-07T22:57:55.931Z,100526.60
2019-06-07T23:00:23.343Z,100478.75
2019-06-07T23:02:50.177Z,100500.02
2019-06-07T23:05:17.178Z,100512.97
2019-06-07T23:07:43.897Z,100522.93
2019-06-07T23:10:11.420Z,100543.22
2019-06-07T23:12:38.185Z,100555.83
2019-06-07T23:15:05.087Z,100552.03
2019-06-07T23:17:32.121Z,100559.50
2019-06-07T23:19:58.915Z,100532.12
2019-06-07T23:22:25.605Z,100495.27
2019-06-07T23:24:52.387Z,100445.12
2019-06-07T23:27:19.060Z,100448.46
2019-06-07T23:29:45.757Z,100445.95
2019-06-07T23:32:12.700Z,100477.92
2019-06-07T23:34:39.487Z,100526.92
2019-06-07T23:37:06.254Z,100456.50
2019-06-07T23:39:32.999Z,100363.39
2019-06-07T23:41:59.686Z,100376.23
2019-06-07T23:44:26.403Z,100400.85
2019-06-07T23:46:53.097Z,100431.41
2019-06-07T23:49:19.774Z,100483.50
2019-06-07T23:51:46.539Z,100499.37
2019-06-07T23:54:13.730Z,100498.55
2019-06-07T23:56:40.527Z,100501.62
2019-06-07T23:59:07.213Z,100520.54
